Time;durP1;ratioP1;P1;durP2;ratioP2;P2;SDS_P1;SDS_P2;PMS_P1;PMS_P2;Temp;Humidity;BMP_temperature;BMP_pressure;BME280_temperature;BME280_humidity;BME280_pressure;Samples;Min_cycle;Max_cycle;Signal;HPM_P1;HPM_P2
2022/01/20 00:01:36;;;;;;;4.25;3.33;;;;;;;3.69;80.27;99648.16;2621903;54;20078;-65
2022/01/20 00:04:15;;;;;;;4.00;3.42;;;;;;;3.62;80.69;99637.38;2621925;54;20038;-65
2022/01/20 00:09:44;;;;;;;4.18;3.30;;;;;;;3.63;80.74;99641.69;2620100;54;20584;-66
2022/01/20 00:23:41;;;;;;;4.00;2.92;;;;;;;3.66;81.11;99662.31;2618776;31;20511;-65
2022/01/20 00:26:12;;;;;;;3.28;2.97;;;;;;;3.65;81.19;99652.81;2618017;54;20026;-65
2022/01/20 00:28:44;;;;;;;4.00;3.60;;;;;;;3.68;81.08;99659.59;2617537;54;20026;-65
2022/01/20 00:31:30;;;;;;;3.70;3.30;;;;;;;3.70;80.88;99655.88;2617907;54;20038;-65
2022/01/20 00:34:13;;;;;;;4.13;3.50;;;;;;;3.70;81.12;99662.91;2617431;47;20038;-66
2022/01/20 00:39:28;;;;;;;4.60;3.47;;;;;;;3.74;81.16;99661.69;2617855;39;20171;-66
2022/01/20 00:41:58;;;;;;;4.45;3.40;;;;;;;3.73;81.27;99649.56;2617965;54;20030;-66
2022/01/20 00:44:28;;;;;;;4.75;3.80;;;;;;;3.76;80.75;99653.72;2618286;54;20053;-66
2022/01/20 00:46:59;;;;;;;4.35;3.70;;;;;;;3.72;81.19;99659.19;2617100;47;20027;-66
2022/01/20 00:49:31;;;;;;;4.68;3.90;;;;;;;3.76;81.02;99659.78;2618040;54;20054;-65
2022/01/20 00:52:01;;;;;;;4.93;3.92;;;;;;;3.72;81.17;99661.81;2617428;47;20035;-66
2022/01/20 00:54:31;;;;;;;4.85;4.03;;;;;;;3.76;80.73;99672.84;2617873;54;20096;-66
2022/01/20 00:57:02;;;;;;;4.38;3.97;;;;;;;3.74;81.07;99664.28;2617332;47;20022;-65
2022/01/20 00:59:32;;;;;;;5.70;4.15;;;;;;;3.75;81.02;99660.72;2617346;52;20031;-65
2022/01/20 01:02:03;;;;;;;4.88;3.65;;;;;;;3.82;81.28;99658.44;2621726;39;20398;-64
2022/01/20 01:04:36;;;;;;;4.78;4.03;;;;;;;3.82;80.87;99656.63;2620843;47;20034;-65
2022/01/20 01:09:52;;;;;;;5.75;4.55;;;;;;;3.86;81.42;99658.03;2620600;54;20124;-67
2022/01/20 01:12:31;;;;;;;6.43;5.20;;;;;;;3.89;80.92;99665.63;2620876;54;20049;-65
2022/01/20 01:15:02;;;;;;;6.40;5.32;;;;;;;3.82;80.83;99658.44;2620670;47;20030;-65
2022/01/20 01:20:21;;;;;;;7.72;6.03;;;;;;;3.94;81.11;99653.00;2620300;39;20411;-64
2022/01/20 01:22:50;;;;;;;7.82;6.10;;;;;;;3.97;80.47;99663.22;2620562;54;20034;-65
2022/01/20 01:25:20;;;;;;;9.88;6.13;;;;;;;4.00;80.57;99658.66;2619921;54;20571;-65
2022/01/20 01:27:50;;;;;;;6.07;5.25;;;;;;;4.00;81.16;99653.41;2617542;54;20022;-65
2022/01/20 01:30:38;;;;;;;7.15;5.80;;;;;;;3.94;80.99;99645.13;2618180;54;20038;-65
2022/01/20 01:33:08;;;;;;;8.13;6.28;;;;;;;3.89;80.55;99651.72;2617104;54;20038;-65
2022/01/20 01:35:42;;;;;;;8.10;6.10;;;;;;;3.91;80.98;99647.19;2618134;47;20557;-65
2022/01/20 01:38:35;;;;;;;7.75;6.05;;;;;;;3.91;81.06;99655.03;2618928;39;20440;-65
2022/01/20 01:41:10;;;;;;;6.57;5.40;;;;;;;3.88;80.87;99650.91;2618469;54;20038;-64
2022/01/20 01:43:41;;;;;;;7.53;6.57;;;;;;;3.82;80.92;99654.03;2618416;54;20023;-65
2022/01/20 01:46:11;;;;;;;7.20;6.07;;;;;;;3.82;81.30;99656.63;2618078;54;20030;-65
2022/01/20 01:48:45;;;;;;;8.23;6.60;;;;;;;3.89;81.26;99664.81;2618210;39;20421;-65
2022/01/20 01:51:19;;;;;;;9.15;6.50;;;;;;;3.97;81.63;99665.00;2617524;54;20034;-65
2022/01/20 01:53:50;;;;;;;7.78;6.50;;;;;;;3.97;81.05;99670.22;2617811;47;20030;-65
2022/01/20 01:56:21;;;;;;;7.25;6.45;;;;;;;3.99;81.40;99668.28;2617276;54;20150;-65
2022/01/20 01:58:50;;;;;;;8.38;6.30;;;;;;;4.02;80.94;99662.81;2618485;54;20574;-65
2022/01/20 12:15:49;;;;;;;9.52;2.40;;;;;;;4.78;71.27;99892.97;2592853;54;19973;-66
2022/01/20 12:18:19;;;;;;;9.43;2.60;;;;;;;4.79;71.32;99890.19;2621584;54;20090;-66
2022/01/20 12:20:49;;;;;;;12.40;2.70;;;;;;;4.85;71.23;99902.75;2621451;54;20440;-65
2022/01/20 12:23:20;;;;;;;6.75;2.30;;;;;;;4.85;71.35;99899.31;2621647;54;20038;-66
2022/01/20 12:25:49;;;;;;;9.15;2.50;;;;;;;4.70;69.68;99899.66;2622432;54;20034;-64
2022/01/20 12:28:20;;;;;;;15.82;3.65;;;;;;;4.69;69.17;99894.53;2622522;54;20074;-66
2022/01/20 12:30:52;;;;;;;8.27;3.08;;;;;;;4.70;68.63;99893.59;2622365;54;20035;-66
2022/01/20 12:33:24;;;;;;;11.57;2.75;;;;;;;4.69;66.84;99889.28;2621389;47;20057;-68
2022/01/20 12:35:56;;;;;;;9.55;3.15;;;;;;;4.86;66.32;99887.91;2621517;54;20041;-65
2022/01/20 12:38:28;;;;;;;6.80;2.33;;;;;;;5.04;65.15;99888.13;2621515;54;20078;-66
2022/01/20 12:41:03;;;;;;;8.35;2.60;;;;;;;5.09;65.38;99884.13;2620383;54;20026;-65
2022/01/20 12:43:41;;;;;;;6.97;3.20;;;;;;;5.20;64.00;99878.81;2621126;54;20039;-64
2022/01/20 12:46:16;;;;;;;12.32;2.80;;;;;;;5.26;63.35;99892.34;2620608;54;20030;-66
2022/01/20 12:48:58;;;;;;;7.50;2.67;;;;;;;5.44;61.61;99899.47;2620617;54;20038;-66
2022/01/20 12:51:34;;;;;;;8.25;1.90;;;;;;;5.45;60.06;99892.44;2621957;31;20518;-65
2022/01/20 12:54:07;;;;;;;6.63;1.77;;;;;;;5.39;58.70;99895.59;2618899;47;20525;-66
2022/01/20 12:56:39;;;;;;;8.18;1.83;;;;;;;5.17;58.03;99900.03;2618346;54;20130;-66
2022/01/20 12:59:09;;;;;;;5.88;2.08;;;;;;;5.12;58.22;99902.22;2618616;39;20474;-66
2022/01/20 13:02:03;;;;;;;7.43;2.10;;;;;;;5.01;57.62;99901.47;2617263;54;20557;-66
2022/01/20 13:04:34;;;;;;;6.57;2.08;;;;;;;4.96;57.25;99907.13;2618048;54;20058;-66
2022/01/20 13:07:05;;;;;;;10.13;1.90;;;;;;;4.97;57.62;99912.22;2618474;39;20441;-66
2022/01/20 13:09:41;;;;;;;10.77;1.80;;;;;;;4.88;56.61;99910.38;2617484;47;20085;-65
2022/01/20 13:12:13;;;;;;;8.70;2.33;;;;;;;4.92;56.71;99906.53;2620206;54;20570;-65
2022/01/20 13:14:44;;;;;;;12.20;2.25;;;;;;;4.79;55.07;99902.47;2621909;54;20034;-65
2022/01/20 13:17:22;;;;;;;7.95;1.90;;;;;;;4.70;55.65;99899.66;2619129;54;20121;-65
2022/01/20 13:19:54;;;;;;;7.45;2.20;;;;;;;4.72;56.17;99897.72;2617837;54;20118;-63
2022/01/20 13:22:29;;;;;;;6.72;2.00;;;;;;;4.78;55.96;99887.72;2618255;54;20053;-67
2022/01/20 13:25:08;;;;;;;6.70;1.70;;;;;;;4.68;55.25;99901.56;2617573;54;20027;-69
2022/01/20 13:27:38;;;;;;;9.25;2.30;;;;;;;4.71;56.41;99906.56;2618099;39;20406;-70
2022/01/20 13:30:09;;;;;;;7.78;1.80;;;;;;;4.65;55.20;99907.06;2618473;54;20049;-69
2022/01/20 13:32:51;;;;;;;5.47;1.55;;;;;;;4.64;55.11;99915.03;2619196;54;20031;-68
2022/01/20 13:35:20;;;;;;;7.60;1.45;;;;;;;4.72;55.20;99925.72;2618871;54;20057;-68
2022/01/20 13:38:00;;;;;;;5.13;1.88;;;;;;;4.74;54.83;99909.88;2618760;54;20055;-67
2022/01/20 13:40:31;;;;;;;5.50;1.40;;;;;;;4.80;55.04;99907.56;2619068;54;20046;-69
2022/01/20 13:45:49;;;;;;;5.68;1.77;;;;;;;4.94;55.13;99893.31;2621210;54;20077;-68
2022/01/20 13:48:28;;;;;;;7.93;1.98;;;;;;;4.80;54.33;99891.03;2620684;54;20026;-68
2022/01/20 13:51:00;;;;;;;5.57;1.90;;;;;;;4.70;54.25;99897.03;2618970;54;20058;-67
2022/01/20 13:53:35;;;;;;;7.35;2.17;;;;;;;4.72;54.38;99902.13;2619271;54;20085;-67
2022/01/20 13:56:11;;;;;;;11.93;3.22;;;;;;;4.72;54.95;99899.53;2619150;54;20046;-69
2022/01/20 13:58:42;;;;;;;9.25;2.20;;;;;;;4.67;54.25;99899.91;2619396;54;20130;-66
2022/01/20 14:01:12;;;;;;;12.30;3.35;;;;;;;4.75;55.03;99906.31;2618848;54;20034;-66
2022/01/20 14:03:45;;;;;;;8.95;2.60;;;;;;;4.90;54.80;99907.66;2619839;54;20089;-65
2022/01/20 14:06:15;;;;;;;8.38;2.20;;;;;;;4.97;54.67;99911.38;2618977;54;20081;-66
2022/01/20 14:08:44;;;;;;;8.65;2.35;;;;;;;4.97;53.87;99917.44;2619035;54;20034;-66
2022/01/20 14:11:14;;;;;;;8.43;2.30;;;;;;;4.88;53.75;99926.09;2618751;54;20038;-66
2022/01/20 14:13:44;;;;;;;8.85;2.15;;;;;;;4.91;54.33;99930.25;2619538;54;20034;-65
2022/01/20 14:16:14;;;;;;;7.20;2.40;;;;;;;4.82;54.13;99931.88;2619084;54;20027;-65
2022/01/20 14:18:50;;;;;;;10.75;3.08;;;;;;;4.74;53.92;99931.66;2619467;54;20065;-67
2022/01/20 14:21:20;;;;;;;5.45;2.50;;;;;;;4.66;54.24;99934.09;2620054;54;20057;-66
2022/01/20 14:23:55;;;;;;;9.50;2.42;;;;;;;4.53;53.74;99941.28;2620831;54;20042;-66
2022/01/20 14:26:29;;;;;;;6.65;1.85;;;;;;;4.60;54.11;99939.81;2620391;54;20039;-65
2022/01/20 14:28:59;;;;;;;8.38;2.53;;;;;;;4.65;54.27;99946.38;2620563;39;20470;-66
2022/01/20 14:31:29;;;;;;;6.05;2.40;;;;;;;4.69;54.34;99947.78;2621892;39;20454;-65
2022/01/20 14:34:03;;;;;;;4.30;1.70;;;;;;;4.67;54.49;99951.47;2620197;54;20122;-66
2022/01/20 14:36:32;;;;;;;6.85;1.70;;;;;;;4.64;54.60;99943.84;2620343;47;20042;-65
2022/01/20 14:39:02;;;;;;;6.75;2.00;;;;;;;4.58;54.66;99939.13;2620970;54;20026;-65
2022/01/20 14:41:32;;;;;;;6.82;2.17;;;;;;;4.46;54.70;99941.81;2620855;54;20038;-65
2022/01/20 14:44:01;;;;;;;7.00;1.95;;;;;;;4.38;54.34;99952.06;2619595;54;20888;-65
2022/01/20 14:46:34;;;;;;;8.35;2.63;;;;;;;4.34;55.13;99944.59;2619208;54;20585;-66
2022/01/20 14:49:06;;;;;;;9.68;2.30;;;;;;;4.32;55.09;99956.97;2619569;54;20034;-65
2022/01/20 14:51:36;;;;;;;3.85;1.55;;;;;;;4.23;54.88;99948.06;2619203;54;20570;-67
2022/01/20 14:54:05;;;;;;;9.52;1.90;;;;;;;4.21;55.33;99970.94;2618967;54;20057;-65
2022/01/20 14:56:38;;;;;;;10.00;2.47;;;;;;;3.97;57.53;99968.47;2619285;54;20031;-65
2022/01/20 14:59:07;;;;;;;7.80;2.17;;;;;;;3.83;58.85;99973.97;2619244;54;20054;-65
2022/01/20 15:01:38;;;;;;;11.13;2.22;;;;;;;3.80;59.82;99977.66;2619516;54;20026;-65
2022/01/20 15:04:10;;;;;;;6.35;2.42;;;;;;;3.72;60.90;99972.22;2619884;54;20034;-64
2022/01/20 15:06:41;;;;;;;8.35;2.03;;;;;;;3.79;61.45;99983.00;2621405;54;20061;-66
2022/01/20 15:09:11;;;;;;;6.82;2.50;;;;;;;3.67;62.15;99976.94;2622425;39;20419;-66
2022/01/20 15:11:41;;;;;;;12.95;2.83;;;;;;;3.53;63.19;99991.09;2619420;54;20565;-64
2022/01/20 15:14:11;;;;;;;6.30;1.88;;;;;;;3.43;63.42;99991.00;2619356;54;20034;-64
2022/01/20 15:16:41;;;;;;;3.38;1.52;;;;;;;3.11;63.07;100000.44;2620212;39;20438;-65
2022/01/20 15:19:13;;;;;;;4.38;1.63;;;;;;;3.00;63.49;99996.00;2619271;54;20038;-64
2022/01/20 15:21:44;;;;;;;6.07;2.00;;;;;;;2.76;64.29;100010.91;2618676;54;20034;-65
2022/01/20 15:24:14;;;;;;;6.03;1.50;;;;;;;2.71;64.42;100011.25;2619062;54;20030;-65
2022/01/20 15:26:44;;;;;;;4.65;1.10;;;;;;;2.69;65.05;100010.50;2618218;47;20067;-65
2022/01/20 15:29:14;;;;;;;2.95;1.27;;;;;;;2.69;65.21;100007.91;2619661;39;20441;-65
2022/01/20 15:31:43;;;;;;;4.00;1.40;;;;;;;2.73;64.58;100004.13;2619177;54;20035;-67
2022/01/20 15:34:16;;;;;;;5.60;1.48;;;;;;;2.69;65.13;100008.75;2618969;54;20065;-68
2022/01/20 15:36:47;;;;;;;6.15;1.50;;;;;;;2.60;65.06;100016.41;2618486;54;20029;-66
2022/01/20 15:39:17;;;;;;;5.72;2.03;;;;;;;2.61;64.73;100005.88;2618309;54;20031;-64
2022/01/20 15:41:47;;;;;;;3.60;1.67;;;;;;;2.56;65.40;100010.56;2617950;54;20592;-66
2022/01/20 15:44:16;;;;;;;3.88;1.50;;;;;;;2.56;65.02;100020.19;2619131;39;20685;-65
2022/01/20 15:46:46;;;;;;;6.00;1.92;;;;;;;2.59;65.18;100010.34;2618367;54;20057;-65
2022/01/20 15:49:19;;;;;;;5.25;2.25;;;;;;;2.63;65.42;100003.97;2619675;54;20026;-66
2022/01/20 15:51:49;;;;;;;7.05;1.70;;;;;;;2.63;65.25;100003.13;2621661;54;20068;-67
2022/01/20 15:54:22;;;;;;;9.45;2.00;;;;;;;2.57;65.14;100000.97;2619617;54;20027;-65
2022/01/20 15:56:52;;;;;;;3.22;1.40;;;;;;;2.54;65.32;100004.66;2618243;54;20031;-65
2022/01/20 15:59:23;;;;;;;5.43;1.67;;;;;;;2.53;65.41;100010.81;2618446;54;20098;-66
2022/01/20 16:01:52;;;;;;;4.30;1.55;;;;;;;2.55;65.42;100008.91;2618161;47;20034;-65
2022/01/20 16:04:24;;;;;;;5.95;1.70;;;;;;;2.56;65.89;100004.53;2618516;54;20034;-65
2022/01/20 16:06:54;;;;;;;7.72;2.17;;;;;;;2.54;65.77;100007.25;2618265;54;20038;-66
2022/01/20 16:09:24;;;;;;;4.45;2.13;;;;;;;2.52;66.25;100011.75;2618899;39;20466;-65
2022/01/20 16:11:53;;;;;;;4.53;2.22;;;;;;;2.45;66.23;100011.38;2618568;39;20739;-66
2022/01/20 16:14:23;;;;;;;7.85;2.30;;;;;;;2.37;66.73;100011.09;2618520;54;20074;-65
2022/01/20 16:16:53;;;;;;;5.97;2.67;;;;;;;2.33;66.53;100007.03;2617623;47;20030;-64
2022/01/20 16:19:25;;;;;;;9.85;3.65;;;;;;;2.28;67.11;100008.28;2617846;54;20030;-64
2022/01/20 16:21:55;;;;;;;5.97;2.80;;;;;;;2.20;67.45;100019.28;2617853;51;20101;-64
2022/01/20 16:24:25;;;;;;;5.45;2.20;;;;;;;2.13;67.23;100023.28;2618621;54;20030;-64
2022/01/20 16:26:55;;;;;;;5.75;2.10;;;;;;;2.04;67.87;100016.09;2617375;54;20027;-64
2022/01/20 16:29:25;;;;;;;4.35;2.10;;;;;;;2.04;67.79;100014.34;2618498;54;20026;-66
2022/01/20 16:31:55;;;;;;;6.50;2.53;;;;;;;2.09;67.89;100016.63;2618899;39;20514;-66
2022/01/20 16:34:27;;;;;;;7.05;2.83;;;;;;;2.15;68.27;100029.22;2617929;54;20557;-63
2022/01/20 16:36:57;;;;;;;3.97;1.90;;;;;;;2.21;68.13;100044.44;2618444;54;20045;-64
2022/01/20 16:39:27;;;;;;;3.30;1.80;;;;;;;2.23;68.60;100043.38;2618249;54;20052;-65
2022/01/20 16:41:56;;;;;;;5.47;2.08;;;;;;;2.21;68.31;100045.28;2618096;54;20042;-65
2022/01/20 16:44:26;;;;;;;5.57;2.08;;;;;;;2.19;68.56;100052.38;2618382;54;20059;-65
2022/01/20 16:46:55;;;;;;;6.10;2.40;;;;;;;2.26;68.85;100067.59;2617628;54;20118;-65
2022/01/20 16:49:29;;;;;;;5.55;2.38;;;;;;;2.35;68.92;100064.34;2617964;54;20038;-65
2022/01/20 16:51:58;;;;;;;6.93;2.33;;;;;;;2.38;69.23;100058.91;2618210;54;20037;-65
2022/01/20 16:54:28;;;;;;;5.95;2.38;;;;;;;2.42;68.82;100057.75;2617639;47;20027;-65
2022/01/20 16:56:57;;;;;;;4.07;2.55;;;;;;;2.41;68.89;100066.53;2618347;54;20550;-65
2022/01/20 16:59:27;;;;;;;5.45;2.88;;;;;;;2.44;69.32;100067.09;2618358;54;20031;-64
2022/01/20 17:01:58;;;;;;;6.28;2.35;;;;;;;2.48;69.39;100071.16;2618517;54;20604;-65
2022/01/20 17:04:30;;;;;;;6.75;2.40;;;;;;;2.44;69.12;100074.09;2618021;54;20058;-64
2022/01/20 17:07:00;;;;;;;5.63;2.20;;;;;;;2.38;69.01;100069.34;2618183;54;20039;-65
2022/01/20 17:09:29;;;;;;;5.45;2.10;;;;;;;2.38;69.13;100085.00;2618287;54;20614;-65
2022/01/20 17:12:02;;;;;;;3.75;2.38;;;;;;;2.46;69.22;100104.38;2618724;54;20038;-66
2022/01/20 17:14:34;;;;;;;6.65;3.60;;;;;;;2.44;69.84;100095.81;2620430;54;20059;-66
2022/01/20 17:17:07;;;;;;;6.18;3.00;;;;;;;2.47;69.51;100089.56;2621158;54;20046;-65
2022/01/20 17:19:40;;;;;;;8.73;3.25;;;;;;;2.46;69.10;100090.50;2621777;54;20078;-69
2022/01/20 17:22:12;;;;;;;6.30;3.30;;;;;;;2.53;69.40;100090.88;2621725;54;20038;-66
2022/01/20 17:24:42;;;;;;;4.88;3.42;;;;;;;2.51;69.54;100082.34;2621865;54;20041;-66
2022/01/20 17:27:11;;;;;;;6.35;3.20;;;;;;;2.46;69.10;100086.13;2621710;54;20601;-66
2022/01/20 17:29:42;;;;;;;7.55;3.92;;;;;;;2.46;69.21;100074.84;2622523;54;20542;-64
2022/01/20 17:32:12;;;;;;;8.70;3.65;;;;;;;2.51;69.11;100080.56;2622825;54;20034;-65
2022/01/20 17:34:44;;;;;;;5.90;3.33;;;;;;;2.56;68.88;100080.22;2621760;54;20057;-64
2022/01/20 17:37:14;;;;;;;9.85;3.47;;;;;;;2.57;68.89;100089.72;2620985;54;20134;-67
2022/01/20 17:39:43;;;;;;;9.65;3.50;;;;;;;2.55;68.51;100084.63;2621292;54;20031;-66
2022/01/20 17:42:14;;;;;;;9.25;3.45;;;;;;;2.52;68.48;100082.22;2621354;54;20038;-65
2022/01/20 17:44:43;;;;;;;14.48;4.55;;;;;;;2.43;68.20;100090.72;2620623;51;20026;-65
2022/01/20 17:47:13;;;;;;;13.68;5.53;;;;;;;2.38;68.16;100092.81;2620837;54;20034;-65
2022/01/20 17:49:45;;;;;;;10.95;4.05;;;;;;;2.33;68.59;100095.75;2620275;47;20038;-66
2022/01/20 17:52:15;;;;;;;15.32;6.90;;;;;;;2.36;68.32;100105.13;2619149;47;20027;-64
2022/01/20 17:54:45;;;;;;;16.80;7.90;;;;;;;2.30;68.24;100098.59;2618945;54;20034;-64
2022/01/20 17:57:15;;;;;;;10.35;4.43;;;;;;;2.23;68.42;100098.16;2617420;47;20569;-65
2022/01/20 17:59:45;;;;;;;12.73;4.53;;;;;;;2.22;68.75;100100.91;2618725;54;20049;-66
2022/01/20 18:02:15;;;;;;;9.13;4.72;;;;;;;2.21;68.75;100097.47;2618034;54;20281;-65
2022/01/20 18:04:47;;;;;;;11.00;5.22;;;;;;;2.20;68.65;100093.19;2618306;47;20489;-65
2022/01/20 18:07:17;;;;;;;13.60;6.97;;;;;;;2.24;68.89;100096.38;2618039;54;20034;-64
2022/01/20 18:09:49;;;;;;;14.48;6.72;;;;;;;2.25;68.47;100095.47;2617575;47;20022;-64
2022/01/20 18:12:19;;;;;;;11.77;5.45;;;;;;;2.13;68.24;100091.94;2618387;39;20606;-64
2022/01/20 18:14:48;;;;;;;10.45;4.68;;;;;;;2.09;68.83;100097.50;2617915;54;20031;-64
2022/01/20 18:17:21;;;;;;;13.13;4.95;;;;;;;2.10;68.72;100102.59;2618352;54;20042;-65
2022/01/20 18:19:53;;;;;;;14.65;5.00;;;;;;;2.10;68.66;100106.97;2618840;54;20033;-65
2022/01/20 18:22:23;;;;;;;8.05;3.70;;;;;;;2.13;68.93;100114.59;2618841;54;20053;-66
2022/01/20 18:24:53;;;;;;;9.23;4.13;;;;;;;2.11;69.27;100124.28;2619309;54;20034;-62
2022/01/20 18:27:24;;;;;;;8.65;3.33;;;;;;;2.17;69.20;100124.69;2618761;54;20033;-63
2022/01/20 18:29:54;;;;;;;9.57;3.20;;;;;;;2.22;68.94;100119.16;2618548;51;20034;-64
2022/01/20 18:32:26;;;;;;;5.32;2.70;;;;;;;2.25;68.86;100115.50;2620907;54;20038;-67
2022/01/20 18:34:58;;;;;;;9.57;3.90;;;;;;;2.18;68.86;100104.66;2620361;54;20049;-64
2022/01/20 18:37:28;;;;;;;8.30;3.88;;;;;;;2.13;68.49;100093.72;2618862;54;20125;-64
2022/01/20 18:39:58;;;;;;;12.45;4.25;;;;;;;2.09;68.58;100107.91;2618596;54;20058;-65
2022/01/20 18:42:27;;;;;;;11.57;4.85;;;;;;;2.10;68.96;100107.81;2618588;54;20613;-64
2022/01/20 18:44:57;;;;;;;10.93;3.45;;;;;;;2.08;68.60;100099.25;2618718;54;20030;-64
2022/01/20 18:47:27;;;;;;;7.93;3.83;;;;;;;2.09;68.63;100100.09;2618467;54;20030;-65
2022/01/20 18:49:59;;;;;;;8.35;3.85;;;;;;;1.98;68.25;100101.66;2618623;54;20069;-63
2022/01/20 18:52:29;;;;;;;11.82;3.95;;;;;;;1.97;68.32;100114.81;2618637;54;20047;-64
2022/01/20 18:54:59;;;;;;;12.13;4.60;;;;;;;1.92;68.64;100115.13;2618197;46;20035;-64
2022/01/20 18:57:29;;;;;;;13.95;4.03;;;;;;;1.89;68.17;100102.31;2618664;54;20035;-64
2022/01/20 18:59:58;;;;;;;11.75;3.92;;;;;;;1.86;68.27;100099.06;2618811;54;20038;-65
2022/01/20 19:02:28;;;;;;;11.45;3.92;;;;;;;1.81;68.39;100103.78;2621652;54;20034;-65
2022/01/20 19:05:01;;;;;;;14.45;5.43;;;;;;;1.74;68.42;100109.38;2622664;54;20065;-66
2022/01/20 19:07:30;;;;;;;12.85;4.15;;;;;;;1.73;68.40;100107.72;2621940;54;20570;-66
2022/01/20 19:10:00;;;;;;;14.40;3.92;;;;;;;1.72;68.34;100111.28;2622623;54;20031;-65
2022/01/20 19:12:30;;;;;;;10.98;3.85;;;;;;;1.72;68.56;100113.06;2622729;54;20026;-65
2022/01/20 19:15:03;;;;;;;10.70;4.18;;;;;;;1.70;68.72;100118.34;2622748;54;20030;-66
2022/01/20 19:17:33;;;;;;;12.60;3.92;;;;;;;1.71;68.12;100117.44;2622718;54;20034;-67
2022/01/20 19:20:05;;;;;;;10.05;3.65;;;;;;;1.69;68.57;100115.88;2620935;54;20027;-65
2022/01/20 19:22:35;;;;;;;8.85;3.80;;;;;;;1.66;68.29;100123.88;2621688;54;20562;-65
2022/01/20 19:25:06;;;;;;;11.15;3.63;;;;;;;1.64;68.56;100131.81;2620096;54;20054;-66
2022/01/20 19:27:36;;;;;;;11.68;4.30;;;;;;;1.62;68.63;100132.84;2622641;39;20442;-65
2022/01/20 19:30:08;;;;;;;11.73;4.97;;;;;;;1.63;68.40;100134.50;2619448;54;20033;-64
2022/01/20 19:32:38;;;;;;;11.75;4.85;;;;;;;1.64;68.83;100134.41;2619602;54;20042;-64
2022/01/20 19:35:13;;;;;;;12.00;5.95;;;;;;;1.62;68.85;100130.25;2620866;54;20046;-65
2022/01/20 19:37:43;;;;;;;13.52;4.45;;;;;;;1.58;68.73;100131.38;2620230;47;20531;-67
2022/01/20 19:40:15;;;;;;;13.48;4.47;;;;;;;1.58;69.17;100147.03;2618389;47;20042;-65
2022/01/20 19:42:45;;;;;;;11.35;4.78;;;;;;;1.62;69.01;100146.72;2619200;39;20401;-66
2022/01/20 19:45:16;;;;;;;7.53;3.50;;;;;;;1.62;69.10;100144.09;2619001;31;20524;-65
2022/01/20 19:47:48;;;;;;;10.80;4.30;;;;;;;1.67;69.05;100151.59;2617994;46;20029;-65
2022/01/20 19:50:22;;;;;;;10.38;4.28;;;;;;;1.75;69.06;100151.94;2618570;54;20035;-65
2022/01/20 19:52:53;;;;;;;13.48;5.38;;;;;;;1.78;69.31;100162.16;2618452;54;20106;-65
2022/01/20 19:55:23;;;;;;;14.52;5.90;;;;;;;1.84;69.05;100155.72;2617625;47;20035;-65
2022/01/20 19:57:55;;;;;;;16.60;5.63;;;;;;;1.84;69.42;100159.16;2617660;47;20030;-64
2022/01/20 20:00:24;;;;;;;12.20;5.75;;;;;;;1.93;69.09;100161.13;2618384;54;20045;-65
2022/01/20 20:02:54;;;;;;;15.95;5.60;;;;;;;1.92;69.02;100169.06;2618335;54;20130;-65
2022/01/20 20:05:27;;;;;;;7.50;3.88;;;;;;;1.90;69.12;100168.31;2618346;54;20038;-64
2022/01/20 20:07:57;;;;;;;12.07;4.82;;;;;;;1.91;69.42;100175.19;2618254;54;20272;-65
2022/01/20 20:10:30;;;;;;;13.70;5.30;;;;;;;1.95;69.16;100181.88;2618852;39;20428;-65
2022/01/20 20:12:59;;;;;;;11.53;4.07;;;;;;;2.01;69.52;100170.22;2618385;54;20127;-64
2022/01/20 20:15:36;;;;;;;13.27;6.28;;;;;;;2.02;69.42;100171.88;2617703;54;20314;-65
2022/01/20 20:18:06;;;;;;;12.48;5.13;;;;;;;1.95;69.15;100161.84;2618402;54;20066;-65
2022/01/20 20:20:39;;;;;;;11.82;4.07;;;;;;;1.89;69.11;100162.28;2617835;54;20042;-64
2022/01/20 20:23:09;;;;;;;9.73;4.10;;;;;;;1.90;69.12;100168.31;2618469;54;20038;-64
2022/01/20 20:25:40;;;;;;;12.23;5.38;;;;;;;1.85;69.19;100162.59;2618753;54;20034;-64
2022/01/20 20:28:09;;;;;;;14.80;5.72;;;;;;;1.80;69.55;100154.25;2617472;47;20030;-65
2022/01/20 20:30:39;;;;;;;18.80;5.55;;;;;;;1.69;69.49;100165.41;2618319;54;20038;-65
2022/01/20 20:33:11;;;;;;;16.42;6.28;;;;;;;1.65;69.69;100162.16;2618195;54;20059;-66
2022/01/20 20:35:43;;;;;;;17.05;5.50;;;;;;;1.58;69.59;100162.66;2618437;54;20042;-65
2022/01/20 20:38:13;;;;;;;10.07;4.70;;;;;;;1.54;70.38;100159.41;2618846;39;20474;-64
2022/01/20 20:40:42;;;;;;;12.00;4.75;;;;;;;1.52;70.35;100157.88;2618366;54;20049;-65
2022/01/20 20:43:12;;;;;;;12.18;4.40;;;;;;;1.53;70.46;100175.16;2618439;54;20030;-64
2022/01/20 20:45:42;;;;;;;16.83;5.65;;;;;;;1.53;70.19;100180.38;2618362;54;20065;-65
2022/01/20 20:48:11;;;;;;;10.32;4.20;;;;;;;1.58;70.31;100184.34;2618256;39;20442;-64
2022/01/20 20:50:49;;;;;;;10.73;4.25;;;;;;;1.62;70.65;100185.81;2617657;54;20167;-64
2022/01/20 20:53:19;;;;;;;15.05;4.03;;;;;;;1.62;70.21;100198.84;2618211;54;20450;-65
2022/01/20 20:55:49;;;;;;;12.75;5.45;;;;;;;1.67;70.68;100199.41;2618006;54;20031;-63
2022/01/20 20:58:19;;;;;;;16.50;4.53;;;;;;;1.76;70.64;100205.78;2618204;54;20158;-65
2022/01/20 21:00:49;;;;;;;16.55;6.70;;;;;;;1.84;70.32;100198.28;2617903;54;20042;-65
2022/01/20 21:03:18;;;;;;;13.82;4.03;;;;;;;1.90;70.56;100202.22;2619717;54;20031;-65
2022/01/20 21:05:51;;;;;;;12.52;4.25;;;;;;;1.94;70.72;100206.28;2617870;54;20060;-64
2022/01/20 21:08:21;;;;;;;9.88;5.13;;;;;;;2.00;70.64;100216.34;2618416;54;20030;-65
2022/01/20 21:10:54;;;;;;;10.77;4.72;;;;;;;2.04;69.98;100222.16;2621093;31;20539;-65
2022/01/20 21:13:24;;;;;;;12.98;4.13;;;;;;;2.08;69.87;100207.97;2620711;54;20034;-66
2022/01/20 21:15:54;;;;;;;12.52;5.00;;;;;;;2.12;69.99;100215.50;2618428;39;20442;-67
2022/01/20 21:18:24;;;;;;;17.38;6.10;;;;;;;2.13;69.69;100221.56;2618214;54;20124;-64
2022/01/20 21:20:57;;;;;;;13.35;4.38;;;;;;;2.17;69.98;100229.06;2617687;47;20022;-65
2022/01/20 21:23:28;;;;;;;13.77;4.82;;;;;;;2.21;70.06;100229.69;2618328;54;20566;-64
2022/01/20 21:25:58;;;;;;;11.88;4.90;;;;;;;2.23;69.81;100225.19;2617863;54;20030;-64
2022/01/20 21:28:28;;;;;;;17.08;8.10;;;;;;;2.30;70.22;100228.22;2618343;54;20648;-65
2022/01/20 21:31:00;;;;;;;15.52;6.38;;;;;;;2.33;70.01;100234.06;2617398;54;20026;-65
2022/01/20 21:33:36;;;;;;;12.63;4.40;;;;;;;2.33;69.68;100239.28;2618083;54;20145;-64
2022/01/20 21:36:10;;;;;;;13.18;5.00;;;;;;;2.30;69.46;100236.88;2617898;54;20573;-65
2022/01/20 21:38:42;;;;;;;10.40;4.60;;;;;;;2.18;69.83;100229.91;2617445;54;20150;-64
2022/01/20 21:41:13;;;;;;;18.38;4.63;;;;;;;2.11;69.82;100242.50;2618409;39;20402;-64
2022/01/20 21:43:43;;;;;;;10.90;4.82;;;;;;;2.13;69.87;100239.81;2618360;39;20441;-66
2022/01/20 21:46:14;;;;;;;11.60;4.50;;;;;;;2.09;69.75;100236.56;2617113;50;20039;-63
2022/01/20 21:48:45;;;;;;;20.20;5.88;;;;;;;2.11;70.36;100247.72;2617539;47;20023;-65
2022/01/20 21:51:18;;;;;;;12.38;4.95;;;;;;;2.16;70.11;100252.63;2617768;47;20061;-65
2022/01/20 21:53:48;;;;;;;17.45;5.68;;;;;;;2.14;69.66;100260.56;2618868;54;20698;-65
2022/01/20 21:56:19;;;;;;;11.93;5.38;;;;;;;2.07;69.96;100266.31;2618322;54;20546;-64
2022/01/20 21:58:49;;;;;;;15.68;4.78;;;;;;;2.05;70.47;100273.41;2618502;54;20426;-64
2022/01/20 22:01:20;;;;;;;12.05;4.80;;;;;;;2.04;70.46;100264.75;2618767;54;20035;-65
2022/01/20 22:03:50;;;;;;;16.73;5.45;;;;;;;2.12;70.80;100267.69;2618986;54;20034;-65
2022/01/20 22:06:22;;;;;;;42.97;23.42;;;;;;;2.21;70.50;100277.50;2618484;54;20046;-65
2022/01/20 22:08:52;;;;;;;10.70;4.85;;;;;;;2.23;70.02;100273.00;2618255;54;20077;-64
2022/01/20 22:11:21;;;;;;;14.50;4.15;;;;;;;2.15;70.14;100259.63;2618640;54;20073;-64
2022/01/20 22:13:52;;;;;;;10.05;4.15;;;;;;;2.11;70.03;100272.97;2618876;54;20137;-65
2022/01/20 22:16:23;;;;;;;10.95;4.47;;;;;;;2.13;70.01;100278.94;2618706;54;20085;-64
2022/01/20 22:18:53;;;;;;;10.30;3.65;;;;;;;2.19;70.24;100281.13;2618736;47;20026;-63
2022/01/20 22:21:26;;;;;;;16.70;7.25;;;;;;;2.16;70.30;100274.38;2620652;47;20111;-63
2022/01/20 22:23:55;;;;;;;13.70;7.53;;;;;;;2.18;70.42;100279.47;2623049;54;20038;-65
2022/01/20 22:26:25;;;;;;;16.25;6.30;;;;;;;2.20;70.04;100275.81;2622762;54;20026;-63
2022/01/20 22:28:55;;;;;;;12.13;4.60;;;;;;;2.24;70.28;100292.09;2621820;47;20029;-63
2022/01/20 22:31:24;;;;;;;11.75;4.90;;;;;;;2.28;70.38;100293.56;2621726;47;20031;-64
2022/01/20 22:33:55;;;;;;;12.07;4.90;;;;;;;2.33;70.11;100299.31;2622145;54;20133;-65